createdAt,value
2023-01-20T00:02:08.591Z,1.93
2023-01-20T00:04:35.322Z,1.53
2023-01-20T00:07:04.194Z,1.83
2023-01-20T00:09:30.922Z,1.70
2023-01-20T00:11:58.380Z,1.97
2023-01-20T00:14:27.844Z,1.80
2023-01-20T00:16:57.339Z,3.00
2023-01-20T00:19:24.118Z,1.80
2023-01-20T00:21:50.854Z,3.03
2023-01-20T00:24:17.664Z,4.67
2023-01-20T00:26:47.087Z,2.10
2023-01-20T00:29:13.860Z,2.17
2023-01-20T00:31:40.722Z,1.87
2023-01-20T00:34:07.717Z,2.10
2023-01-20T00:36:34.444Z,2.00
2023-01-20T00:39:02.882Z,1.93
2023-01-20T00:41:29.908Z,1.80
2023-01-20T00:43:56.995Z,2.70
2023-01-20T00:46:23.976Z,1.73
2023-01-20T00:48:50.919Z,1.67
2023-01-20T00:51:17.988Z,2.50
2023-01-20T00:53:44.924Z,1.57
2023-01-20T00:56:11.622Z,1.53
2023-01-20T00:58:38.864Z,1.63
2023-01-20T01:01:06.247Z,1.33
2023-01-20T01:03:33.080Z,2.10
2023-01-20T01:06:14.036Z,1.30
2023-01-20T01:08:41.961Z,1.93
2023-01-20T01:11:09.508Z,1.47
2023-01-20T01:13:38.985Z,1.40
2023-01-20T01:16:13.765Z,1.77
2023-01-20T01:18:41.149Z,3.07
2023-01-20T01:21:10.051Z,2.33
2023-01-20T01:23:36.853Z,1.87
2023-01-20T01:26:04.181Z,1.80
2023-01-20T01:28:31.074Z,1.70
2023-01-20T01:31:04.153Z,1.70
2023-01-20T01:33:31.703Z,1.10
2023-01-20T01:36:05.450Z,1.10
2023-01-20T01:38:57.247Z,4.47
2023-01-20T01:41:26.374Z,1.10
2023-01-20T01:44:11.838Z,1.23
2023-01-20T01:46:41.899Z,2.23
2023-01-20T01:49:30.892Z,4.70
2023-01-20T01:51:59.852Z,1.40
2023-01-20T01:54:31.485Z,1.17
2023-01-20T01:56:58.342Z,1.57
2023-01-20T01:59:27.798Z,1.20
2023-01-20T02:01:54.924Z,3.30
2023-01-20T02:04:26.587Z,1.33
2023-01-20T02:07:04.738Z,1.40
2023-01-20T02:09:32.175Z,1.43
2023-01-20T02:12:02.964Z,2.10
2023-01-20T02:14:57.703Z,1.50
2023-01-20T02:18:02.603Z,1.20
2023-01-20T02:20:57.243Z,1.33
2023-01-20T02:23:49.600Z,1.40
2023-01-20T02:26:56.320Z,2.47
2023-01-20T02:29:50.500Z,2.23
2023-01-20T02:32:35.808Z,2.80
2023-01-20T02:35:22.510Z,5.17
2023-01-20T02:38:02.021Z,1.73
2023-01-20T02:40:43.397Z,1.87
2023-01-20T02:43:23.256Z,2.37
2023-01-20T02:45:55.206Z,2.23
2023-01-20T02:48:28.024Z,2.40
2023-01-20T02:51:33.115Z,4.37
2023-01-20T02:54:09.793Z,1.90
2023-01-20T02:56:37.024Z,3.00
2023-01-20T02:59:09.658Z,1.50
2023-01-20T03:01:48.045Z,2.53
2023-01-20T03:04:20.022Z,1.50
2023-01-20T03:06:51.941Z,2.67
2023-01-20T03:09:24.305Z,2.57
2023-01-20T03:11:55.948Z,2.23
2023-01-20T03:14:24.246Z,2.00
2023-01-20T03:16:51.240Z,1.83
2023-01-20T03:19:21.252Z,5.33
2023-01-20T03:21:50.848Z,2.10
2023-01-20T03:24:17.555Z,2.00
2023-01-20T03:26:45.640Z,1.90
2023-01-20T03:29:14.132Z,1.70
2023-01-20T03:31:47.266Z,1.60
2023-01-20T03:34:19.711Z,1.70
2023-01-20T03:36:47.462Z,1.30
2023-01-20T03:39:14.600Z,1.23
2023-01-20T03:41:56.527Z,1.40
2023-01-20T03:44:36.411Z,1.47
2023-01-20T03:47:30.926Z,2.43
2023-01-20T03:50:25.662Z,2.60
2023-01-20T03:52:58.174Z,1.40
2023-01-20T03:55:40.860Z,1.60
2023-01-20T03:58:16.721Z,1.40
2023-01-20T04:00:46.520Z,1.50
2023-01-20T04:03:18.680Z,1.70
2023-01-20T04:05:48.299Z,1.87
2023-01-20T04:08:18.339Z,2.00
2023-01-20T04:10:48.596Z,2.07
2023-01-20T04:13:17.139Z,1.60
2023-01-20T04:15:46.759Z,1.30
2023-01-20T04:18:22.494Z,1.57
2023-01-20T04:21:03.619Z,1.30
2023-01-20T04:23:37.271Z,1.50
2023-01-20T04:26:04.099Z,1.40
2023-01-20T04:28:31.672Z,1.50
2023-01-20T04:30:58.700Z,1.47
2023-01-20T04:33:26.451Z,1.70
2023-01-20T04:35:53.150Z,1.80
2023-01-20T04:38:20.643Z,1.60
2023-01-20T04:40:47.563Z,1.90
2023-01-20T04:43:15.615Z,2.63
2023-01-20T04:45:42.346Z,2.20
2023-01-20T04:48:09.758Z,2.40
2023-01-20T04:50:40.949Z,2.30
2023-01-20T04:53:11.737Z,2.57
2023-01-20T04:55:47.774Z,4.80
2023-01-20T04:58:24.999Z,2.87
2023-01-20T05:00:51.953Z,2.70
2023-01-20T05:03:19.274Z,2.83
2023-01-20T05:05:54.138Z,3.30
2023-01-20T05:08:27.883Z,2.80
2023-01-20T05:10:54.585Z,3.73
2023-01-20T05:13:21.407Z,2.73
2023-01-20T05:15:56.414Z,3.13
2023-01-20T05:18:23.128Z,3.30
2023-01-20T05:20:51.645Z,3.30
2023-01-20T05:23:18.303Z,3.17
2023-01-20T05:25:52.139Z,5.27
2023-01-20T05:28:19.911Z,4.57
2023-01-20T05:30:48.528Z,2.30
2023-01-20T05:33:15.812Z,4.37
2023-01-20T05:35:44.776Z,4.13
2023-01-20T05:38:11.475Z,3.80
2023-01-20T05:40:38.581Z,2.93
2023-01-20T05:43:07.380Z,2.93
2023-01-20T05:45:34.270Z,2.03
2023-01-20T05:48:01.416Z,2.97
2023-01-20T05:50:29.470Z,3.17
2023-01-20T05:52:56.207Z,1.97
2023-01-20T05:55:23.238Z,1.70
2023-01-20T05:57:50.067Z,3.73
2023-01-20T06:00:18.874Z,3.30
2023-01-20T06:02:48.611Z,2.43
2023-01-20T06:05:15.648Z,2.00
2023-01-20T06:07:43.645Z,4.90
2023-01-20T06:10:11.691Z,2.67
2023-01-20T06:12:38.484Z,3.17
2023-01-20T06:15:05.762Z,2.13
2023-01-20T06:17:32.606Z,2.13
2023-01-20T06:20:00.326Z,2.80
2023-01-20T06:22:27.569Z,2.57
2023-01-20T06:24:54.486Z,10.27
2023-01-20T06:27:21.400Z,7.60
2023-01-20T06:29:48.334Z,3.77
2023-01-20T06:32:15.119Z,7.27
2023-01-20T06:34:41.825Z,9.23
2023-01-20T06:37:08.591Z,8.43
2023-01-20T06:39:35.346Z,14.23
2023-01-20T06:42:02.060Z,9.27
2023-01-20T06:44:28.881Z,10.97
2023-01-20T06:46:57.404Z,17.43
2023-01-20T06:49:24.249Z,11.20
2023-01-20T06:51:51.024Z,13.97
2023-01-20T06:54:18.332Z,11.67
2023-01-20T06:56:45.213Z,11.83
2023-01-20T06:59:12.387Z,11.93
2023-01-20T07:01:39.737Z,13.47
2023-01-20T07:04:06.716Z,14.67
2023-01-20T07:06:38.304Z,11.23
2023-01-20T07:09:10.396Z,12.47
2023-01-20T07:11:37.350Z,14.40
2023-01-20T07:14:05.075Z,14.47
2023-01-20T07:16:32.419Z,11.57
2023-01-20T07:18:59.125Z,12.17
2023-01-20T07:21:26.697Z,14.20
2023-01-20T07:23:53.866Z,13.03
2023-01-20T07:26:23.218Z,10.93
2023-01-20T07:28:52.272Z,14.00
2023-01-20T07:31:24.677Z,15.57
2023-01-20T07:33:55.555Z,13.93
2023-01-20T07:36:24.989Z,12.80
2023-01-20T07:38:53.481Z,14.93
2023-01-20T07:41:21.445Z,17.13
2023-01-20T07:43:51.034Z,18.47
2023-01-20T07:46:18.462Z,16.50
2023-01-20T07:48:45.942Z,16.13
2023-01-20T07:51:14.372Z,15.03
2023-01-20T07:53:49.566Z,16.03
2023-01-20T07:56:18.892Z,16.70
2023-01-20T07:58:45.745Z,14.53
2023-01-20T08:01:20.755Z,18.40
2023-01-20T08:03:48.038Z,22.07
2023-01-20T08:06:17.711Z,17.67
2023-01-20T08:08:44.538Z,18.47
2023-01-20T08:11:14.166Z,19.80
2023-01-20T08:13:41.544Z,25.30
2023-01-20T08:16:11.271Z,24.40
2023-01-20T08:18:38.544Z,21.97
2023-01-20T08:21:08.375Z,23.40
2023-01-20T08:23:36.212Z,29.10
2023-01-20T08:26:06.013Z,29.13
2023-01-20T08:28:36.396Z,24.63
2023-01-20T08:31:17.772Z,30.20
2023-01-20T08:33:44.792Z,30.83
2023-01-20T08:36:13.126Z,33.33
2023-01-20T08:38:40.713Z,34.13
2023-01-20T08:41:12.610Z,35.70
2023-01-20T08:43:39.720Z,36.60
2023-01-20T08:46:10.929Z,38.63
2023-01-20T08:48:40.181Z,43.77
2023-01-20T08:51:09.914Z,40.13
2023-01-20T08:53:36.777Z,41.57
2023-01-20T08:56:04.647Z,41.77
2023-01-20T08:58:32.462Z,39.50
2023-01-20T09:00:59.392Z,39.03
2023-01-20T09:03:26.616Z,43.17
2023-01-20T09:05:53.749Z,37.57
2023-01-20T09:08:21.913Z,43.93
2023-01-20T09:10:48.627Z,43.37
2023-01-20T09:13:15.679Z,41.33
2023-01-20T09:15:43.348Z,42.17
2023-01-20T09:18:11.036Z,37.77
2023-01-20T09:20:39.955Z,50.70
2023-01-20T09:23:06.675Z,34.83
2023-01-20T09:25:33.540Z,44.67
2023-01-20T09:28:01.541Z,35.27
2023-01-20T09:30:28.641Z,42.90
2023-01-20T09:32:58.339Z,39.03
2023-01-20T09:35:26.356Z,37.43
2023-01-20T09:38:12.325Z,41.10
2023-01-20T09:41:23.798Z,37.60
2023-01-20T09:44:11.277Z,37.83
2023-01-20T09:47:15.361Z,42.77
2023-01-20T09:50:25.725Z,37.43
2023-01-20T09:53:04.837Z,40.20
2023-01-20T09:55:41.007Z,36.20
2023-01-20T09:58:16.995Z,37.97
2023-01-20T10:00:52.014Z,33.50
2023-01-20T10:03:26.756Z,37.57
2023-01-20T10:05:56.804Z,32.97
2023-01-20T10:08:34.755Z,33.10
2023-01-20T10:11:16.328Z,34.80
2023-01-20T10:13:58.508Z,33.87
2023-01-20T10:16:51.980Z,37.23
2023-01-20T10:19:29.719Z,31.60
2023-01-20T10:22:31.713Z,35.83
2023-01-20T10:25:09.210Z,40.93
2023-01-20T10:27:40.392Z,35.13
2023-01-20T10:30:14.531Z,31.27
2023-01-20T10:32:50.557Z,37.70
2023-01-20T10:35:25.025Z,40.67
2023-01-20T10:37:53.463Z,35.53
2023-01-20T10:40:34.971Z,34.60
2023-01-20T10:43:10.798Z,31.70
2023-01-20T10:46:01.824Z,35.23
2023-01-20T10:48:34.563Z,34.73
2023-01-20T10:51:10.195Z,35.90
2023-01-20T10:53:59.970Z,34.47
2023-01-20T10:56:44.520Z,38.87
2023-01-20T10:59:22.448Z,37.40
2023-01-20T11:02:02.554Z,33.83
2023-01-20T11:04:36.131Z,31.73
2023-01-20T11:07:03.845Z,32.73
2023-01-20T11:09:37.220Z,29.63
2023-01-20T11:12:12.380Z,32.13
2023-01-20T11:14:39.271Z,25.20
2023-01-20T11:17:12.884Z,32.17
2023-01-20T11:19:54.685Z,28.97
2023-01-20T11:22:34.292Z,31.53
2023-01-20T11:25:04.363Z,36.10
2023-01-20T11:27:46.299Z,28.23
2023-01-20T11:30:23.408Z,30.10
2023-01-20T11:33:16.330Z,29.67
2023-01-20T11:35:58.938Z,31.33
2023-01-20T11:38:28.640Z,30.10
2023-01-20T11:40:57.596Z,26.33
2023-01-20T11:43:29.268Z,27.33
2023-01-20T11:46:31.502Z,30.87
2023-01-20T11:49:22.541Z,29.23
2023-01-20T11:51:55.702Z,27.83
2023-01-20T11:54:26.669Z,27.37
2023-01-20T11:57:07.787Z,28.47
2023-01-20T11:59:36.639Z,29.70
2023-01-20T12:02:09.394Z,30.00
2023-01-20T12:05:17.985Z,33.23
2023-01-20T12:07:47.527Z,29.97
2023-01-20T12:10:21.920Z,28.27
2023-01-20T12:12:54.479Z,27.43
2023-01-20T12:15:32.127Z,34.00
2023-01-20T12:18:28.254Z,29.03
2023-01-20T12:21:09.481Z,30.23
2023-01-20T12:23:39.526Z,32.00
2023-01-20T12:26:06.830Z,31.33
2023-01-20T12:28:58.450Z,27.87
2023-01-20T12:31:27.879Z,31.37
2023-01-20T12:34:04.796Z,32.03
2023-01-20T12:36:45.843Z,29.30
2023-01-20T12:39:52.736Z,30.37
2023-01-20T12:42:31.647Z,30.93
2023-01-20T12:44:59.758Z,31.60
2023-01-20T12:47:33.837Z,28.43
2023-01-20T12:50:25.130Z,32.87
2023-01-20T12:53:15.352Z,31.83
2023-01-20T12:56:02.089Z,31.00
2023-01-20T12:58:47.986Z,31.70
2023-01-20T13:01:47.782Z,33.80
2023-01-20T13:04:33.674Z,36.60
2023-01-20T13:07:31.334Z,34.30
2023-01-20T13:10:07.193Z,31.20
2023-01-20T13:12:33.955Z,33.07
2023-01-20T13:15:28.330Z,33.10
2023-01-20T13:18:32.602Z,34.30
2023-01-20T13:20:59.323Z,31.30
2023-01-20T13:23:29.734Z,39.13
2023-01-20T13:25:58.996Z,33.80
2023-01-20T13:28:28.872Z,35.93
2023-01-20T13:30:59.633Z,35.43
2023-01-20T13:33:33.463Z,33.53
2023-01-20T13:36:12.791Z,33.77
2023-01-20T13:38:40.271Z,40.33
2023-01-20T13:41:07.248Z,38.27
2023-01-20T13:43:37.027Z,39.77
2023-01-20T13:46:04.084Z,39.37
2023-01-20T13:48:32.531Z,34.17
2023-01-20T13:51:27.017Z,35.17
2023-01-20T13:53:54.014Z,35.43
2023-01-20T13:56:30.038Z,40.67
2023-01-20T13:59:00.229Z,35.93
2023-01-20T14:01:28.377Z,38.43
2023-01-20T14:04:22.588Z,40.23
2023-01-20T14:06:52.066Z,40.17
2023-01-20T14:09:24.829Z,40.40
2023-01-20T14:11:54.810Z,45.97
2023-01-20T14:14:25.287Z,36.63
2023-01-20T14:16:53.280Z,39.27
2023-01-20T14:19:35.587Z,41.63
2023-01-20T14:22:18.244Z,43.37
2023-01-20T14:24:48.538Z,44.03
2023-01-20T14:27:19.086Z,50.87
2023-01-20T14:29:48.158Z,48.17
2023-01-20T14:32:37.067Z,47.10
2023-01-20T14:35:35.015Z,44.63
2023-01-20T14:38:03.858Z,49.10
2023-01-20T14:40:33.761Z,48.50
2023-01-20T14:43:06.381Z,42.70
2023-01-20T14:45:36.480Z,44.30
2023-01-20T14:48:05.823Z,46.30
2023-01-20T14:50:34.251Z,46.60
2023-01-20T14:53:02.109Z,39.73
2023-01-20T14:55:40.946Z,46.47
2023-01-20T14:58:18.640Z,52.43
2023-01-20T15:01:01.814Z,43.27
2023-01-20T15:03:55.194Z,45.00
2023-01-20T15:06:24.174Z,48.97
2023-01-20T15:09:05.671Z,49.03
2023-01-20T15:11:34.361Z,47.47
2023-01-20T15:14:01.248Z,41.77
2023-01-20T15:16:30.752Z,48.17
2023-01-20T15:19:20.049Z,48.80
2023-01-20T15:21:51.545Z,43.13
2023-01-20T15:24:21.744Z,48.37
2023-01-20T15:26:52.050Z,48.37
2023-01-20T15:29:27.271Z,46.83
2023-01-20T15:31:56.312Z,43.83
2023-01-20T15:34:23.883Z,42.53
2023-01-20T15:36:52.375Z,51.23
2023-01-20T15:39:22.683Z,47.80
2023-01-20T15:41:54.054Z,47.27
2023-01-20T15:44:51.026Z,51.50
2023-01-20T15:47:21.283Z,45.13
2023-01-20T15:49:48.645Z,43.67
2023-01-20T15:52:16.031Z,46.60
2023-01-20T15:54:43.632Z,49.30
2023-01-20T15:57:14.306Z,58.73
2023-01-20T15:59:49.871Z,66.83
2023-01-20T16:02:22.118Z,54.17
2023-01-20T16:04:50.141Z,49.93
2023-01-20T16:07:19.795Z,39.37
2023-01-20T16:09:47.365Z,50.93
2023-01-20T16:12:16.077Z,48.73
2023-01-20T16:14:43.707Z,46.47
2023-01-20T16:17:22.275Z,45.27
2023-01-20T16:19:50.281Z,46.07
2023-01-20T16:22:17.431Z,43.93
2023-01-20T16:24:44.248Z,43.17
2023-01-20T16:27:18.160Z,47.37
2023-01-20T16:29:45.546Z,58.93
2023-01-20T16:32:24.212Z,58.07
2023-01-20T16:34:51.762Z,74.30
2023-01-20T16:37:19.061Z,56.60
2023-01-20T16:39:46.429Z,45.77
2023-01-20T16:42:14.924Z,53.43
2023-01-20T16:44:41.968Z,42.87
2023-01-20T16:47:08.694Z,57.27
2023-01-20T16:49:36.462Z,43.80
2023-01-20T16:52:03.572Z,47.00
2023-01-20T16:54:30.694Z,50.47
2023-01-20T16:56:57.704Z,43.17
2023-01-20T16:59:26.000Z,45.83
2023-01-20T17:01:53.550Z,50.63
2023-01-20T17:04:21.111Z,53.50
2023-01-20T17:06:48.017Z,48.97
2023-01-20T17:09:15.901Z,55.63
2023-01-20T17:11:45.082Z,49.93
2023-01-20T17:14:12.089Z,51.17
2023-01-20T17:16:39.561Z,51.73
2023-01-20T17:19:07.956Z,41.83
2023-01-20T17:21:38.856Z,51.40
2023-01-20T17:24:07.819Z,52.23
2023-01-20T17:26:38.229Z,45.00
2023-01-20T17:29:07.227Z,43.77
2023-01-20T17:31:36.799Z,46.13
2023-01-20T17:34:05.772Z,42.03
2023-01-20T17:36:34.776Z,43.23
2023-01-20T17:39:04.395Z,51.83
2023-01-20T17:41:32.626Z,47.57
2023-01-20T17:43:59.652Z,45.67
2023-01-20T17:46:28.658Z,49.23
2023-01-20T17:48:59.771Z,48.10
2023-01-20T17:51:29.567Z,40.67
2023-01-20T17:54:03.510Z,42.73
2023-01-20T17:56:31.357Z,48.03
2023-01-20T17:58:59.846Z,49.50
2023-01-20T18:01:29.853Z,48.27
2023-01-20T18:04:01.129Z,43.23
2023-01-20T18:06:29.405Z,46.47
2023-01-20T18:08:59.596Z,47.10
2023-01-20T18:11:29.627Z,49.17
2023-01-20T18:13:58.292Z,43.90
2023-01-20T18:16:30.170Z,45.47
2023-01-20T18:18:59.711Z,45.27
2023-01-20T18:21:36.374Z,47.33
2023-01-20T18:24:05.029Z,57.70
2023-01-20T18:26:34.186Z,55.80
2023-01-20T18:29:03.962Z,48.50
2023-01-20T18:31:33.322Z,48.80
2023-01-20T18:34:07.018Z,47.23
2023-01-20T18:36:40.225Z,49.70
2023-01-20T18:39:12.735Z,46.83
2023-01-20T18:41:40.489Z,51.90
2023-01-20T18:44:08.046Z,54.77
2023-01-20T18:46:35.007Z,44.10
2023-01-20T18:49:02.394Z,47.83
2023-01-20T18:51:30.183Z,49.70
2023-01-20T18:54:04.844Z,50.80
2023-01-20T18:56:35.989Z,48.90
2023-01-20T18:59:05.146Z,49.40
2023-01-20T19:01:35.143Z,51.27
2023-01-20T19:04:03.353Z,48.97
2023-01-20T19:06:34.382Z,50.33
2023-01-20T19:09:01.485Z,50.93
2023-01-20T19:11:34.403Z,53.27
2023-01-20T19:14:01.693Z,54.40
2023-01-20T19:16:32.668Z,53.37
2023-01-20T19:19:07.040Z,50.87
2023-01-20T19:21:36.208Z,46.37
2023-01-20T19:24:06.208Z,54.57
2023-01-20T19:26:35.727Z,44.83
2023-01-20T19:29:06.036Z,52.67
2023-01-20T19:31:35.586Z,56.20
2023-01-20T19:34:03.343Z,43.97
2023-01-20T19:39:45.947Z,47.50
2023-01-20T19:42:13.675Z,46.13
2023-01-20T19:44:41.506Z,51.77
2023-01-20T19:47:08.216Z,48.17
2023-01-20T19:49:35.039Z,46.30
2023-01-20T19:52:02.834Z,50.00
2023-01-20T19:54:31.609Z,49.60
2023-01-20T19:56:58.459Z,44.93
2023-01-20T19:59:25.977Z,54.27
2023-01-20T20:01:53.145Z,53.33
2023-01-20T20:04:21.105Z,51.23
2023-01-20T20:06:48.883Z,46.73
2023-01-20T20:09:20.722Z,50.53
2023-01-20T20:11:48.967Z,52.63
2023-01-20T20:14:18.276Z,51.50
2023-01-20T20:16:45.630Z,54.67
2023-01-20T20:19:15.795Z,52.00
2023-01-20T20:21:42.834Z,50.30
2023-01-20T20:24:15.345Z,48.97
2023-01-20T20:26:43.162Z,50.93
2023-01-20T20:29:11.258Z,50.43
2023-01-20T20:31:40.502Z,47.13
2023-01-20T20:34:11.257Z,45.63
2023-01-20T20:36:39.373Z,41.23
2023-01-20T20:39:06.173Z,48.53
2023-01-20T20:41:35.401Z,52.50
2023-01-20T20:44:03.309Z,49.13
2023-01-20T20:46:30.444Z,45.47
2023-01-20T20:49:02.011Z,49.97
2023-01-20T20:51:31.870Z,46.83
2023-01-20T20:54:00.964Z,46.57
2023-01-20T20:56:31.411Z,54.77
2023-01-20T20:59:02.484Z,55.83
2023-01-20T21:01:33.205Z,51.37
2023-01-20T21:04:00.635Z,49.90
2023-01-20T21:06:28.692Z,47.87
2023-01-20T21:08:55.744Z,48.23
2023-01-20T21:11:23.993Z,46.23
2023-01-20T21:13:50.791Z,47.10
2023-01-20T21:16:23.005Z,51.80
2023-01-20T21:18:51.893Z,48.97
2023-01-20T21:21:19.643Z,44.00
2023-01-20T21:23:51.615Z,51.33
2023-01-20T21:26:19.290Z,45.37
2023-01-20T21:28:49.171Z,48.47
2023-01-20T21:31:22.258Z,49.27
2023-01-20T21:33:53.883Z,49.50
2023-01-20T21:36:21.505Z,46.07
2023-01-20T21:38:48.487Z,52.07
2023-01-20T21:41:15.667Z,47.00
2023-01-20T21:44:02.829Z,54.47
2023-01-20T21:46:40.440Z,54.33
2023-01-20T21:49:29.083Z,51.50
2023-01-20T21:52:14.872Z,49.60
2023-01-20T21:54:42.204Z,47.97
2023-01-20T21:57:09.141Z,46.53
2023-01-20T21:59:36.135Z,44.37
2023-01-20T22:02:02.977Z,45.50
2023-01-20T22:04:29.777Z,49.70
2023-01-20T22:06:56.976Z,45.03
2023-01-20T22:09:24.083Z,43.00
2023-01-20T22:11:51.117Z,42.87
2023-01-20T22:14:17.956Z,44.30
2023-01-20T22:16:45.000Z,42.73
2023-01-20T22:19:13.750Z,43.93
2023-01-20T22:21:40.860Z,42.47
2023-01-20T22:24:08.458Z,44.07
2023-01-20T22:26:35.551Z,40.20
2023-01-20T22:29:02.672Z,47.63
2023-01-20T22:31:30.336Z,48.33
2023-01-20T22:33:58.867Z,45.33
2023-01-20T22:36:26.121Z,44.23
2023-01-20T22:38:53.483Z,41.60
2023-01-20T22:41:21.492Z,42.70
2023-01-20T22:43:50.172Z,36.57
2023-01-20T22:46:19.861Z,40.77
2023-01-20T22:48:47.401Z,41.07
2023-01-20T22:51:20.076Z,44.93
2023-01-20T22:53:47.508Z,44.73
2023-01-20T22:56:17.894Z,47.27
2023-01-20T22:58:45.062Z,44.43
2023-01-20T23:01:17.390Z,46.13
2023-01-20T23:03:45.100Z,48.00
2023-01-20T23:06:12.993Z,46.60
2023-01-20T23:08:41.062Z,53.80
2023-01-20T23:11:12.490Z,52.30
2023-01-20T23:13:40.137Z,49.23
2023-01-20T23:16:10.383Z,44.60
2023-01-20T23:18:37.561Z,48.93
2023-01-20T23:21:08.210Z,51.00
2023-01-20T23:23:35.667Z,51.33
2023-01-20T23:26:04.834Z,48.70
2023-01-20T23:28:33.667Z,49.23
2023-01-20T23:31:08.908Z,47.63
2023-01-20T23:33:36.125Z,56.23
2023-01-20T23:36:18.363Z,55.43
2023-01-20T23:38:46.666Z,58.87
2023-01-20T23:41:15.838Z,58.27
2023-01-20T23:43:44.208Z,56.70
2023-01-20T23:46:11.402Z,66.73
2023-01-20T23:48:39.096Z,58.90
2023-01-20T23:51:07.088Z,63.70
2023-01-20T23:53:37.980Z,55.87
2023-01-20T23:56:08.019Z,58.87
2023-01-20T23:58:34.789Z,61.53
